Time;durP1;ratioP1;P1;durP2;ratioP2;P2;SDS_P1;SDS_P2;PMS_P1;PMS_P2;Temp;Humidity;BMP_temperature;BMP_pressure;BME280_temperature;BME280_humidity;BME280_pressure;Samples;Min_cycle;Max_cycle;Signal;HPM_P1;HPM_P2
2022/07/07 00:01:12;;;;;;;;;;;21.80;48.40;;;;;;6248383;23;19915;-86
2022/07/07 00:03:38;;;;;;;;;;;21.70;48.50;;;;;;6248815;22;19912;-85
2022/07/07 00:06:04;;;;;;;;;;;21.70;48.90;;;;;;6221792;23;19912;-84
2022/07/07 00:08:29;;;;;;;;;;;21.70;49.10;;;;;;6221600;23;19969;-86
2022/07/07 00:10:55;;;;;;;;;;;21.70;48.90;;;;;;6222387;23;20286;-85
2022/07/07 00:13:20;;;;;;;;;;;21.80;49.10;;;;;;6221954;22;19916;-85
2022/07/07 00:15:46;;;;;;;;;;;21.80;48.90;;;;;;6248923;22;19907;-85
2022/07/07 00:18:12;;;;;;;;;;;21.80;48.90;;;;;;6222291;22;19904;-85
2022/07/07 00:20:37;;;;;;;;;;;21.80;50.00;;;;;;6248333;23;19911;-85
2022/07/07 00:23:03;;;;;;;;;;;21.60;51.60;;;;;;6248289;23;19974;-84
2022/07/07 00:25:28;;;;;;;;;;;21.50;53.20;;;;;;6196998;23;19919;-84
2022/07/07 00:27:54;;;;;;;;;;;21.50;54.60;;;;;;6246075;22;19908;-85
2022/07/07 00:30:19;;;;;;;;;;;21.40;55.50;;;;;;6245732;23;19914;-84
2022/07/07 00:32:45;;;;;;;;;;;21.30;56.30;;;;;;6245303;22;20293;-87
2022/07/07 00:35:10;;;;;;;;;;;21.30;56.80;;;;;;6218835;23;19924;-86
2022/07/07 00:37:36;;;;;;;;;;;21.30;57.30;;;;;;6219487;23;19907;-86
2022/07/07 00:40:02;;;;;;;;;;;21.30;57.90;;;;;;6219239;23;19915;-87
2022/07/07 00:42:27;;;;;;;;;;;21.30;58.20;;;;;;6245810;23;20306;-87
2022/07/07 00:44:52;;;;;;;;;;;21.30;58.70;;;;;;6221049;23;19982;-86
2022/07/07 00:47:18;;;;;;;;;;;21.30;59.00;;;;;;6219992;23;19919;-87
2022/07/07 00:49:44;;;;;;;;;;;21.40;59.20;;;;;;6246702;23;19957;-86
2022/07/07 00:52:10;;;;;;;;;;;21.40;59.30;;;;;;6219704;23;19918;-86
2022/07/07 00:54:35;;;;;;;;;;;21.50;59.40;;;;;;6218997;23;19915;-86
2022/07/07 00:57:02;;;;;;;;;;;21.50;59.50;;;;;;6218770;23;19915;-87
2022/07/07 00:59:27;;;;;;;;;;;21.50;59.70;;;;;;6219167;23;19987;-87
2022/07/07 01:01:53;;;;;;;;;;;21.60;59.90;;;;;;6244776;22;20328;-86
2022/07/07 01:04:19;;;;;;;;;;;21.60;60.00;;;;;;6247118;23;19930;-86
2022/07/07 01:06:44;;;;;;;;;;;21.60;60.00;;;;;;6219421;23;19907;-86
2022/07/07 01:09:10;;;;;;;;;;;21.70;60.10;;;;;;6246433;23;20321;-86
2022/07/07 01:11:44;;;;;;;;;;;21.70;60.10;;;;;;6245981;23;19916;-86
2022/07/07 01:14:10;;;;;;;;;;;21.70;60.10;;;;;;6246856;23;19912;-86
2022/07/07 01:16:35;;;;;;;;;;;21.50;60.30;;;;;;6246694;22;20158;-86
2022/07/07 01:19:01;;;;;;;;;;;21.40;60.50;;;;;;6219555;23;20034;-86
2022/07/07 01:21:28;;;;;;;;;;;21.30;60.80;;;;;;6245266;23;19908;-84
2022/07/07 01:23:53;;;;;;;;;;;21.30;61.00;;;;;;6219213;23;19912;-87
2022/07/07 01:26:19;;;;;;;;;;;21.30;61.20;;;;;;6248086;23;19934;-87
2022/07/07 01:28:45;;;;;;;;;;;21.20;61.30;;;;;;6221965;23;19937;-87
2022/07/07 01:31:10;;;;;;;;;;;21.20;61.40;;;;;;6248055;22;19907;-90
2022/07/07 01:33:36;;;;;;;;;;;21.10;61.60;;;;;;6222266;23;20027;-90
2022/07/07 01:36:01;;;;;;;;;;;21.00;61.80;;;;;;6249684;23;19918;-89
2022/07/07 01:38:27;;;;;;;;;;;21.00;62.00;;;;;;6220803;23;19927;-88
2022/07/07 01:40:52;;;;;;;;;;;21.00;62.20;;;;;;6222252;23;19921;-87
2022/07/07 01:43:18;;;;;;;;;;;21.00;62.40;;;;;;6228630;23;19911;-88
2022/07/07 01:45:43;;;;;;;;;;;21.00;62.50;;;;;;6225102;23;20241;-89
2022/07/07 01:48:08;;;;;;;;;;;21.00;62.50;;;;;;6249535;22;19908;-89
2022/07/07 01:50:34;;;;;;;;;;;20.90;62.70;;;;;;6222171;23;19918;-86
2022/07/07 01:52:59;;;;;;;;;;;21.00;62.80;;;;;;6221441;23;19946;-88
2022/07/07 01:55:25;;;;;;;;;;;20.90;62.80;;;;;;6221391;23;19986;-89
2022/07/07 01:57:50;;;;;;;;;;;20.90;62.90;;;;;;6248205;22;19911;-89
2022/07/07 02:00:16;;;;;;;;;;;20.90;63.00;;;;;;6222323;22;19923;-87
2022/07/07 02:02:41;;;;;;;;;;;20.90;63.00;;;;;;6278087;22;20224;-86
2022/07/07 02:05:07;;;;;;;;;;;20.90;63.00;;;;;;6251140;22;19907;-87
2022/07/07 02:07:35;;;;;;;;;;;20.90;63.10;;;;;;6250814;22;19907;-85
2022/07/07 02:10:01;;;;;;;;;;;20.90;63.10;;;;;;6250527;22;19914;-86
2022/07/07 02:12:26;;;;;;;;;;;20.90;63.30;;;;;;6277275;22;20231;-87
2022/07/07 02:14:52;;;;;;;;;;;20.80;63.30;;;;;;6251944;22;19957;-87
2022/07/07 02:17:17;;;;;;;;;;;20.90;63.40;;;;;;6262036;22;20221;-87
2022/07/07 02:19:43;;;;;;;;;;;20.90;63.40;;;;;;6221480;23;19935;-87
2022/07/07 02:22:09;;;;;;;;;;;21.00;63.40;;;;;;6248221;22;19937;-87
2022/07/07 02:24:34;;;;;;;;;;;21.00;63.40;;;;;;6247958;22;19907;-87
2022/07/07 02:27:00;;;;;;;;;;;21.00;63.40;;;;;;6247571;23;19911;-87
2022/07/07 02:29:25;;;;;;;;;;;21.10;63.50;;;;;;6247722;23;19908;-86
2022/07/07 02:31:50;;;;;;;;;;;21.10;63.50;;;;;;6221000;23;19942;-86
2022/07/07 02:34:16;;;;;;;;;;;21.20;63.50;;;;;;6220283;23;19916;-85
2022/07/07 02:36:41;;;;;;;;;;;21.20;63.40;;;;;;6247604;23;20370;-86
2022/07/07 02:39:07;;;;;;;;;;;21.30;63.50;;;;;;6246549;22;19908;-85
2022/07/07 02:41:32;;;;;;;;;;;21.30;63.50;;;;;;6246868;22;19943;-86
2022/07/07 02:43:58;;;;;;;;;;;21.30;63.50;;;;;;6219991;23;19918;-85
2022/07/07 02:46:23;;;;;;;;;;;21.30;63.50;;;;;;6246837;22;19910;-85
2022/07/07 02:48:49;;;;;;;;;;;21.30;63.40;;;;;;6246847;22;19957;-85
2022/07/07 02:51:14;;;;;;;;;;;21.30;63.50;;;;;;6220947;23;19907;-85
2022/07/07 02:53:40;;;;;;;;;;;21.40;63.50;;;;;;6226482;23;20324;-85
2022/07/07 02:56:05;;;;;;;;;;;21.40;63.50;;;;;;6252743;22;19904;-86
2022/07/07 02:58:31;;;;;;;;;;;21.40;63.40;;;;;;6247644;22;20325;-85
2022/07/07 03:00:57;;;;;;;;;;;21.40;63.40;;;;;;6220781;23;19907;-86
2022/07/07 03:03:22;;;;;;;;;;;21.40;63.50;;;;;;6247887;22;19927;-86
2022/07/07 03:05:48;;;;;;;;;;;21.40;63.50;;;;;;6221098;23;19912;-86
2022/07/07 03:08:13;;;;;;;;;;;21.40;63.60;;;;;;6247051;22;19904;-85
2022/07/07 03:10:39;;;;;;;;;;;21.40;63.70;;;;;;6220641;23;19911;-86
2022/07/07 03:13:04;;;;;;;;;;;21.40;63.70;;;;;;6219661;23;20328;-86
2022/07/07 03:15:30;;;;;;;;;;;21.40;63.60;;;;;;6246719;22;19907;-86
2022/07/07 03:17:56;;;;;;;;;;;21.50;63.70;;;;;;6219897;23;19907;-86
2022/07/07 03:20:21;;;;;;;;;;;21.50;63.80;;;;;;6246671;23;19954;-85
2022/07/07 03:22:47;;;;;;;;;;;21.50;63.80;;;;;;6219480;23;19904;-85
2022/07/07 03:25:13;;;;;;;;;;;21.50;63.90;;;;;;6218842;23;19911;-85
2022/07/07 03:27:38;;;;;;;;;;;21.50;63.90;;;;;;6220254;23;19911;-86
2022/07/07 03:30:05;;;;;;;;;;;21.40;63.80;;;;;;6246747;22;19915;-86
2022/07/07 03:32:30;;;;;;;;;;;21.40;63.90;;;;;;6245912;23;19916;-85
2022/07/07 03:34:56;;;;;;;;;;;21.40;63.90;;;;;;6246630;23;19937;-86
2022/07/07 03:37:22;;;;;;;;;;;21.40;64.00;;;;;;6219490;22;19911;-85
2022/07/07 03:39:47;;;;;;;;;;;21.40;64.00;;;;;;6246399;22;19963;-86
2022/07/07 03:42:13;;;;;;;;;;;21.40;64.10;;;;;;6219834;23;19965;-86
2022/07/07 03:44:38;;;;;;;;;;;21.40;64.10;;;;;;6246278;23;19915;-87
2022/07/07 03:47:04;;;;;;;;;;;21.40;64.20;;;;;;6246573;22;20198;-86
2022/07/07 03:49:29;;;;;;;;;;;21.40;64.20;;;;;;6220568;23;19908;-86
2022/07/07 03:51:55;;;;;;;;;;;21.30;64.20;;;;;;6246507;22;19915;-86
2022/07/07 03:54:20;;;;;;;;;;;21.30;64.30;;;;;;6247150;22;19947;-86
2022/07/07 03:56:46;;;;;;;;;;;21.30;64.50;;;;;;6247473;23;19908;-86
2022/07/07 03:59:14;;;;;;;;;;;21.30;64.50;;;;;;6220149;23;19935;-87
2022/07/07 04:01:44;;;;;;;;;;;21.20;64.60;;;;;;6220217;23;19915;-86
2022/07/07 04:04:11;;;;;;;;;;;21.30;64.80;;;;;;6245875;22;19986;-86
2022/07/07 04:06:36;;;;;;;;;;;21.20;64.80;;;;;;6219229;23;19919;-87
2022/07/07 04:09:02;;;;;;;;;;;21.20;64.80;;;;;;6220128;23;19904;-87
2022/07/07 04:11:27;;;;;;;;;;;21.30;64.80;;;;;;6208119;23;19957;-87
2022/07/07 04:13:53;;;;;;;;;;;21.20;64.90;;;;;;6247557;23;19907;-86
2022/07/07 04:16:18;;;;;;;;;;;21.20;64.90;;;;;;6245500;22;20317;-87
2022/07/07 04:18:44;;;;;;;;;;;21.20;65.00;;;;;;6245666;22;19911;-86
2022/07/07 04:21:09;;;;;;;;;;;21.20;65.10;;;;;;6219510;23;19915;-86
2022/07/07 04:23:34;;;;;;;;;;;21.20;65.10;;;;;;6219735;23;20212;-87
2022/07/07 04:26:00;;;;;;;;;;;21.20;65.10;;;;;;6246244;22;19907;-86
2022/07/07 04:28:25;;;;;;;;;;;21.20;65.10;;;;;;6247033;22;19904;-86
2022/07/07 04:30:51;;;;;;;;;;;21.20;65.20;;;;;;6246466;22;19911;-87
2022/07/07 04:33:17;;;;;;;;;;;21.20;65.30;;;;;;6220009;23;19934;-87
2022/07/07 04:35:42;;;;;;;;;;;21.20;65.30;;;;;;6220141;23;20218;-87
2022/07/07 04:38:08;;;;;;;;;;;21.20;65.30;;;;;;6246595;22;19919;-87
2022/07/07 04:40:33;;;;;;;;;;;21.20;65.50;;;;;;6219517;23;20252;-86
2022/07/07 04:42:59;;;;;;;;;;;21.20;65.40;;;;;;6219326;23;19904;-87
2022/07/07 04:45:24;;;;;;;;;;;21.20;65.30;;;;;;6220332;23;20340;-87
2022/07/07 04:47:50;;;;;;;;;;;21.20;65.40;;;;;;6197010;23;19907;-87
2022/07/07 04:50:15;;;;;;;;;;;21.20;65.50;;;;;;6219608;22;20001;-87
2022/07/07 04:52:41;;;;;;;;;;;21.20;65.50;;;;;;6220141;23;19920;-86
2022/07/07 04:55:07;;;;;;;;;;;21.30;65.70;;;;;;6218879;23;19943;-88
2022/07/07 04:57:32;;;;;;;;;;;21.30;65.70;;;;;;6220548;23;19908;-88
2022/07/07 04:59:58;;;;;;;;;;;21.40;65.70;;;;;;6220164;23;19904;-88
2022/07/07 05:02:23;;;;;;;;;;;21.50;65.60;;;;;;6219833;22;19915;-87
2022/07/07 05:04:51;;;;;;;;;;;21.60;65.70;;;;;;6221104;23;20380;-87
2022/07/07 05:07:17;;;;;;;;;;;21.70;65.60;;;;;;6248450;23;19923;-87
2022/07/07 05:09:43;;;;;;;;;;;21.80;65.40;;;;;;6249182;22;19904;-87
2022/07/07 05:12:08;;;;;;;;;;;21.80;65.50;;;;;;6221402;22;20282;-87
2022/07/07 05:14:34;;;;;;;;;;;21.80;65.40;;;;;;6247401;23;20010;-87
2022/07/07 05:16:59;;;;;;;;;;;21.90;65.20;;;;;;6220274;23;20225;-87
2022/07/07 05:19:25;;;;;;;;;;;21.90;65.30;;;;;;6219566;23;19942;-86
2022/07/07 05:21:55;;;;;;;;;;;22.00;65.30;;;;;;6246814;22;19916;-87
2022/07/07 05:24:20;;;;;;;;;;;22.00;65.20;;;;;;6219969;23;19966;-87
2022/07/07 05:26:46;;;;;;;;;;;22.00;65.20;;;;;;6247977;22;20304;-86
2022/07/07 05:29:12;;;;;;;;;;;22.10;65.40;;;;;;6219581;22;19962;-87
2022/07/07 05:31:37;;;;;;;;;;;22.20;65.40;;;;;;6251458;23;19923;-86
2022/07/07 05:34:03;;;;;;;;;;;22.20;65.40;;;;;;6221335;22;19908;-86
2022/07/07 05:36:29;;;;;;;;;;;22.20;65.40;;;;;;6247129;23;19922;-86
2022/07/07 05:38:54;;;;;;;;;;;22.10;65.20;;;;;;6221842;23;19986;-87
2022/07/07 05:41:20;;;;;;;;;;;22.10;65.40;;;;;;6246813;22;20347;-88
2022/07/07 05:43:45;;;;;;;;;;;22.00;65.50;;;;;;6221745;23;19943;-88
2022/07/07 05:46:11;;;;;;;;;;;22.10;65.60;;;;;;6226960;23;19923;-88
2022/07/07 05:48:37;;;;;;;;;;;22.00;65.90;;;;;;6240642;23;20339;-88
2022/07/07 05:51:03;;;;;;;;;;;22.00;66.10;;;;;;6238979;23;19955;-88
2022/07/07 05:53:29;;;;;;;;;;;22.10;66.10;;;;;;6221314;23;19915;-88
2022/07/07 05:55:55;;;;;;;;;;;22.10;66.20;;;;;;6216539;23;19914;-88
2022/07/07 05:58:21;;;;;;;;;;;22.20;66.30;;;;;;6246551;23;19977;-88
2022/07/07 06:00:47;;;;;;;;;;;22.20;66.50;;;;;;6259073;23;19907;-88
2022/07/07 06:03:12;;;;;;;;;;;22.30;66.60;;;;;;6252392;22;19904;-88
2022/07/07 06:05:38;;;;;;;;;;;22.30;66.70;;;;;;6232872;23;19900;-88
2022/07/07 06:08:03;;;;;;;;;;;22.40;66.90;;;;;;6223341;23;20320;-87
2022/07/07 06:10:29;;;;;;;;;;;22.50;66.90;;;;;;6224164;23;19912;-88
2022/07/07 06:12:54;;;;;;;;;;;22.50;66.80;;;;;;6258648;22;19907;-88
2022/07/07 06:15:20;;;;;;;;;;;22.70;67.00;;;;;;6254038;22;19920;-88
2022/07/07 06:17:47;;;;;;;;;;;22.70;66.80;;;;;;6256937;22;19915;-87
2022/07/07 06:20:13;;;;;;;;;;;22.80;66.60;;;;;;6224075;23;19912;-87
2022/07/07 06:22:39;;;;;;;;;;;22.80;66.50;;;;;;6222156;23;20331;-87
2022/07/07 06:25:05;;;;;;;;;;;22.80;66.80;;;;;;6255402;23;19904;-88
2022/07/07 06:27:30;;;;;;;;;;;22.90;66.70;;;;;;6225562;23;20194;-88
2022/07/07 06:29:57;;;;;;;;;;;23.00;66.50;;;;;;6248216;22;19962;-87
2022/07/07 06:32:22;;;;;;;;;;;23.10;66.20;;;;;;6220478;23;19998;-88
2022/07/07 06:34:48;;;;;;;;;;;23.10;66.10;;;;;;6221032;23;19912;-88
2022/07/07 06:37:13;;;;;;;;;;;23.20;66.10;;;;;;6220604;22;19911;-89
2022/07/07 06:39:39;;;;;;;;;;;23.30;66.30;;;;;;6247282;23;19990;-87
2022/07/07 06:42:05;;;;;;;;;;;23.40;66.40;;;;;;6224697;22;19910;-87
2022/07/07 06:44:30;;;;;;;;;;;23.50;66.20;;;;;;6246114;22;19955;-87
2022/07/07 06:46:57;;;;;;;;;;;23.60;66.00;;;;;;6218084;23;19912;-87
2022/07/07 06:49:22;;;;;;;;;;;23.70;66.10;;;;;;6245576;23;19912;-87
2022/07/07 06:51:48;;;;;;;;;;;23.70;65.90;;;;;;6217932;23;20270;-87
2022/07/07 06:54:13;;;;;;;;;;;23.80;65.90;;;;;;6245309;22;20210;-87
2022/07/07 06:56:39;;;;;;;;;;;23.90;66.00;;;;;;6218980;23;19908;-87
2022/07/07 06:59:04;;;;;;;;;;;24.00;66.10;;;;;;6245025;22;19908;-87
2022/07/07 07:01:30;;;;;;;;;;;24.00;66.20;;;;;;6245763;22;19904;-87
2022/07/07 07:03:55;;;;;;;;;;;24.10;66.20;;;;;;6244981;22;19912;-87
2022/07/07 07:06:21;;;;;;;;;;;24.20;66.40;;;;;;6218036;23;20404;-87
2022/07/07 07:08:48;;;;;;;;;;;24.30;66.50;;;;;;6218303;23;20003;-87
2022/07/07 07:11:13;;;;;;;;;;;24.40;66.60;;;;;;6245161;22;19998;-87
2022/07/07 07:13:38;;;;;;;;;;;24.60;66.70;;;;;;6244509;23;19959;-87
2022/07/07 07:16:04;;;;;;;;;;;24.80;66.50;;;;;;6244806;22;20010;-87
2022/07/07 07:18:29;;;;;;;;;;;25.00;66.50;;;;;;6244908;22;19990;-87
2022/07/07 07:20:55;;;;;;;;;;;25.30;66.90;;;;;;6244342;23;20010;-88
2022/07/07 07:23:21;;;;;;;;;;;25.50;66.40;;;;;;6215499;23;19911;-87
2022/07/07 07:25:46;;;;;;;;;;;25.70;65.50;;;;;;6215760;23;20267;-89
2022/07/07 07:28:12;;;;;;;;;;;25.50;64.80;;;;;;6216497;23;19918;-89
2022/07/07 07:30:40;;;;;;;;;;;25.30;64.80;;;;;;6217394;23;20376;-89
2022/07/07 07:33:06;;;;;;;;;;;25.00;64.00;;;;;;6216693;23;20390;-88
2022/07/07 07:35:34;;;;;;;;;;;24.80;64.10;;;;;;6216250;23;20319;-89
2022/07/07 07:37:59;;;;;;;;;;;24.60;64.40;;;;;;6243699;23;19965;-88
2022/07/07 07:40:25;;;;;;;;;;;24.50;64.60;;;;;;6216271;23;20267;-88
2022/07/07 07:42:50;;;;;;;;;;;24.40;64.60;;;;;;6216382;23;20215;-89
2022/07/07 07:45:16;;;;;;;;;;;24.30;64.40;;;;;;6216516;23;19935;-88
2022/07/07 07:47:43;;;;;;;;;;;24.30;64.10;;;;;;6243284;23;20324;-87
2022/07/07 07:50:11;;;;;;;;;;;24.40;64.50;;;;;;6216146;23;19911;-88
2022/07/07 07:52:37;;;;;;;;;;;24.50;64.40;;;;;;6215496;23;19987;-88
2022/07/07 07:55:03;;;;;;;;;;;24.80;65.20;;;;;;6243550;22;20343;-87
2022/07/07 07:57:29;;;;;;;;;;;25.20;65.10;;;;;;6215063;23;19916;-87
2022/07/07 07:59:54;;;;;;;;;;;25.40;64.90;;;;;;6215394;23;20351;-88
2022/07/07 08:02:20;;;;;;;;;;;25.70;64.70;;;;;;6242382;23;19921;-87
2022/07/07 08:04:45;;;;;;;;;;;25.80;63.70;;;;;;6215886;23;19916;-88
2022/07/07 08:07:11;;;;;;;;;;;25.90;63.30;;;;;;6215744;23;19962;-87
2022/07/07 08:09:36;;;;;;;;;;;25.90;62.50;;;;;;6242240;22;19918;-87
2022/07/07 08:12:01;;;;;;;;;;;25.80;61.80;;;;;;6214992;23;20225;-87
2022/07/07 08:14:27;;;;;;;;;;;25.80;61.30;;;;;;6242282;23;19907;-87
2022/07/07 08:16:52;;;;;;;;;;;25.70;61.00;;;;;;6214724;23;19916;-87
2022/07/07 08:19:19;;;;;;;;;;;25.60;61.00;;;;;;6242694;23;19954;-87
2022/07/07 08:21:46;;;;;;;;;;;25.50;61.00;;;;;;6242830;23;19911;-87
2022/07/07 08:24:13;;;;;;;;;;;25.70;61.50;;;;;;6242020;23;19942;-88
2022/07/07 08:26:38;;;;;;;;;;;26.00;63.40;;;;;;6214428;23;19911;-88
2022/07/07 08:29:04;;;;;;;;;;;26.40;64.00;;;;;;6214926;23;19998;-87
2022/07/07 08:31:30;;;;;;;;;;;26.60;62.90;;;;;;6242360;22;19907;-87
2022/07/07 08:33:55;;;;;;;;;;;26.50;61.50;;;;;;6243862;23;19947;-87
2022/07/07 08:36:21;;;;;;;;;;;26.40;60.90;;;;;;6242441;22;19998;-88
2022/07/07 08:38:47;;;;;;;;;;;26.20;59.70;;;;;;6216152;23;19962;-87
2022/07/07 08:41:13;;;;;;;;;;;26.10;60.00;;;;;;6215789;23;20477;-87
2022/07/07 08:43:38;;;;;;;;;;;26.10;60.50;;;;;;6243227;23;19911;-87
2022/07/07 08:46:10;;;;;;;;;;;26.30;61.70;;;;;;6243435;22;19937;-87
2022/07/07 08:48:36;;;;;;;;;;;26.50;61.80;;;;;;6243633;22;19912;-87
2022/07/07 08:51:01;;;;;;;;;;;26.80;61.90;;;;;;6216463;23;20347;-87
2022/07/07 08:53:32;;;;;;;;;;;27.40;62.70;;;;;;6243212;22;19975;-88
2022/07/07 08:55:58;;;;;;;;;;;28.00;62.10;;;;;;6216258;23;19991;-89
2022/07/07 08:58:24;;;;;;;;;;;28.30;59.90;;;;;;6215697;23;19995;-87
2022/07/07 09:00:49;;;;;;;;;;;28.50;55.80;;;;;;6215541;23;20299;-88
2022/07/07 09:03:15;;;;;;;;;;;28.30;53.90;;;;;;6214815;23;19912;-88
2022/07/07 09:05:41;;;;;;;;;;;28.10;55.50;;;;;;6215452;23;19922;-89
2022/07/07 09:08:19;;;;;;;;;;;27.80;56.20;;;;;;6215891;23;19912;-88
2022/07/07 09:10:45;;;;;;;;;;;27.70;55.90;;;;;;6243835;23;19907;-88
2022/07/07 09:13:20;;;;;;;;;;;27.50;54.10;;;;;;6215934;23;20354;-88
2022/07/07 09:15:46;;;;;;;;;;;27.40;55.20;;;;;;6243510;22;19912;-88
2022/07/07 09:18:11;;;;;;;;;;;27.20;52.70;;;;;;6243706;23;19994;-88
2022/07/07 09:20:37;;;;;;;;;;;27.10;54.30;;;;;;6244330;23;19912;-88
2022/07/07 09:23:03;;;;;;;;;;;27.00;53.60;;;;;;6217068;23;20217;-88
2022/07/07 09:25:28;;;;;;;;;;;26.90;53.90;;;;;;6242716;23;19923;-87
2022/07/07 09:27:54;;;;;;;;;;;26.80;53.90;;;;;;6215372;23;19914;-88
2022/07/07 09:30:31;;;;;;;;;;;26.80;54.60;;;;;;6242075;22;19918;-88
2022/07/07 09:32:57;;;;;;;;;;;27.10;55.00;;;;;;6214940;23;19922;-88
2022/07/07 09:38:15;;;;;;;;;;;27.80;54.10;;;;;;6241471;23;19926;-88
2022/07/07 09:40:49;;;;;;;;;;;28.30;52.50;;;;;;6214256;23;19912;-88
2022/07/07 09:43:15;;;;;;;;;;;28.70;54.90;;;;;;6214457;23;19990;-88
2022/07/07 09:45:41;;;;;;;;;;;29.20;52.50;;;;;;6216285;23;19935;-88
2022/07/07 09:48:09;;;;;;;;;;;29.40;51.00;;;;;;6220825;23;19935;-87
2022/07/07 09:50:35;;;;;;;;;;;29.50;48.70;;;;;;6247703;23;19911;-87
2022/07/07 09:53:09;;;;;;;;;;;29.40;47.40;;;;;;6220582;23;19943;-88
2022/07/07 09:55:34;;;;;;;;;;;29.20;47.10;;;;;;6221180;23;19931;-87
2022/07/07 09:57:59;;;;;;;;;;;28.90;47.20;;;;;;6248470;22;19986;-87
2022/07/07 10:00:25;;;;;;;;;;;28.80;49.10;;;;;;6221478;23;19903;-87
2022/07/07 10:02:52;;;;;;;;;;;29.10;47.50;;;;;;6222070;23;20213;-88
2022/07/07 10:05:18;;;;;;;;;;;29.40;49.40;;;;;;6197210;23;19961;-87
2022/07/07 10:07:46;;;;;;;;;;;30.00;49.60;;;;;;6248944;23;19930;-87
2022/07/07 10:10:12;;;;;;;;;;;30.40;46.10;;;;;;6222332;22;19911;-87
2022/07/07 10:12:42;;;;;;;;;;;30.80;44.50;;;;;;6223403;23;20291;-88
2022/07/07 10:15:11;;;;;;;;;;;31.20;44.00;;;;;;6220966;23;19911;-87
2022/07/07 10:17:36;;;;;;;;;;;31.70;42.70;;;;;;6220432;23;19923;-88
2022/07/07 10:20:02;;;;;;;;;;;31.80;42.90;;;;;;6217827;23;19911;-89
2022/07/07 10:22:28;;;;;;;;;;;32.40;44.30;;;;;;6218268;23;20281;-88
2022/07/07 10:24:55;;;;;;;;;;;32.90;42.70;;;;;;6244424;23;20222;-88
2022/07/07 10:27:21;;;;;;;;;;;33.30;41.50;;;;;;6216931;23;19961;-88
2022/07/07 10:29:49;;;;;;;;;;;33.60;38.20;;;;;;6217306;23;20312;-88
2022/07/07 10:32:17;;;;;;;;;;;33.70;35.90;;;;;;6244584;22;19918;-88
2022/07/07 10:34:53;;;;;;;;;;;33.80;36.50;;;;;;6217505;23;20381;-88
2022/07/07 10:37:19;;;;;;;;;;;33.80;37.60;;;;;;6244850;22;20264;-88
2022/07/07 10:39:46;;;;;;;;;;;33.70;36.70;;;;;;6243999;23;19914;-88
2022/07/07 10:42:15;;;;;;;;;;;33.60;36.50;;;;;;6243838;22;19998;-88
2022/07/07 10:44:42;;;;;;;;;;;33.40;36.00;;;;;;6217351;23;19911;-88
2022/07/07 10:47:19;;;;;;;;;;;33.10;34.20;;;;;;6244872;22;19911;-88
2022/07/07 10:49:46;;;;;;;;;;;32.80;34.30;;;;;;6221601;23;19927;-88
2022/07/07 10:52:25;;;;;;;;;;;32.70;34.30;;;;;;6221351;23;19962;-88
2022/07/07 10:54:55;;;;;;;;;;;33.10;36.30;;;;;;6247704;22;19907;-88
2022/07/07 10:57:25;;;;;;;;;;;33.50;34.30;;;;;;6222580;23;19963;-88
2022/07/07 11:00:01;;;;;;;;;;;33.80;34.40;;;;;;6247336;23;19907;-88
2022/07/07 11:02:30;;;;;;;;;;;33.80;33.70;;;;;;6221029;23;20240;-88
2022/07/07 11:05:00;;;;;;;;;;;33.50;34.00;;;;;;6248237;22;20280;-88
2022/07/07 11:07:26;;;;;;;;;;;33.10;33.10;;;;;;6220349;23;19958;-88
2022/07/07 11:09:57;;;;;;;;;;;32.70;33.60;;;;;;6220828;23;19947;-88
2022/07/07 11:12:42;;;;;;;;;;;32.20;34.40;;;;;;6245797;23;20268;-88
2022/07/07 11:15:25;;;;;;;;;;;31.90;35.40;;;;;;6220079;23;19943;-88
2022/07/07 11:17:55;;;;;;;;;;;31.70;36.50;;;;;;6220306;23;19904;-88
2022/07/07 11:20:29;;;;;;;;;;;31.70;34.90;;;;;;6222232;23;19922;-88
2022/07/07 11:23:05;;;;;;;;;;;31.60;34.70;;;;;;6221327;23;19953;-88
2022/07/07 11:25:30;;;;;;;;;;;31.70;35.60;;;;;;6249229;22;19915;-87
2022/07/07 11:27:56;;;;;;;;;;;32.00;34.80;;;;;;6219626;23;19919;-86
2022/07/07 11:30:22;;;;;;;;;;;32.10;33.40;;;;;;6243303;22;20353;-86
2022/07/07 11:32:48;;;;;;;;;;;32.20;33.90;;;;;;6216793;23;19918;-87
2022/07/07 11:35:14;;;;;;;;;;;32.50;34.10;;;;;;6217544;23;19912;-87
2022/07/07 11:37:40;;;;;;;;;;;32.70;34.40;;;;;;6243898;22;20033;-87
2022/07/07 11:40:12;;;;;;;;;;;33.00;33.70;;;;;;6216856;23;20388;-87
2022/07/07 11:42:40;;;;;;;;;;;33.00;32.80;;;;;;6216610;23;20779;-86
2022/07/07 11:45:26;;;;;;;;;;;32.80;32.20;;;;;;6216861;22;19907;-87
2022/07/07 11:47:52;;;;;;;;;;;32.60;32.20;;;;;;6243479;23;19916;-87
2022/07/07 11:50:18;;;;;;;;;;;32.10;32.40;;;;;;6244210;22;20046;-87
2022/07/07 11:52:57;;;;;;;;;;;31.80;32.70;;;;;;6217563;23;19939;-87
2022/07/07 11:55:23;;;;;;;;;;;31.60;33.60;;;;;;6217632;22;19998;-87
2022/07/07 11:57:55;;;;;;;;;;;31.40;33.10;;;;;;6218016;23;19915;-87
2022/07/07 12:00:21;;;;;;;;;;;31.30;34.00;;;;;;6217384;23;19908;-87
2022/07/07 12:02:52;;;;;;;;;;;31.30;34.00;;;;;;6243515;22;19990;-87
2022/07/07 12:05:20;;;;;;;;;;;31.80;33.80;;;;;;6243913;22;19914;-86
2022/07/07 12:07:56;;;;;;;;;;;32.70;32.60;;;;;;6216871;23;19911;-87
2022/07/07 12:10:23;;;;;;;;;;;33.40;32.20;;;;;;6216655;23;20309;-87
2022/07/07 12:12:59;;;;;;;;;;;33.90;30.70;;;;;;6215697;23;20388;-87
2022/07/07 12:15:27;;;;;;;;;;;34.40;30.20;;;;;;6216466;23;19930;-87
2022/07/07 12:17:53;;;;;;;;;;;34.70;29.10;;;;;;6243032;23;19912;-86
2022/07/07 12:20:19;;;;;;;;;;;34.90;28.80;;;;;;6242433;23;20335;-87
2022/07/07 12:22:49;;;;;;;;;;;34.90;28.50;;;;;;6243480;22;20313;-87
2022/07/07 12:25:15;;;;;;;;;;;34.80;28.70;;;;;;6215806;23;20033;-87
2022/07/07 12:27:56;;;;;;;;;;;34.70;28.00;;;;;;6216788;23;19962;-87
2022/07/07 12:30:22;;;;;;;;;;;34.20;28.30;;;;;;6217215;22;19915;-87
2022/07/07 12:35:31;;;;;;;;;;;33.70;29.70;;;;;;6245021;22;20001;-87
2022/07/07 12:37:58;;;;;;;;;;;33.50;29.90;;;;;;6244434;23;19918;-87
2022/07/07 12:40:25;;;;;;;;;;;33.20;30.50;;;;;;6244561;22;19920;-87
2022/07/07 12:42:50;;;;;;;;;;;33.00;30.50;;;;;;6217051;23;20239;-86
2022/07/07 12:45:17;;;;;;;;;;;32.70;30.50;;;;;;6216973;23;19990;-86
2022/07/07 12:47:44;;;;;;;;;;;32.40;30.90;;;;;;6244383;23;19908;-87
2022/07/07 12:50:09;;;;;;;;;;;32.20;31.20;;;;;;6243749;23;19911;-87
2022/07/07 12:52:35;;;;;;;;;;;32.20;31.20;;;;;;6216853;23;19922;-87
2022/07/07 12:55:11;;;;;;;;;;;32.20;31.50;;;;;;6215897;23;19916;-87
2022/07/07 12:57:36;;;;;;;;;;;32.20;31.50;;;;;;6243673;23;19934;-87
2022/07/07 13:00:02;;;;;;;;;;;32.10;31.50;;;;;;6244373;22;19955;-86
2022/07/07 13:02:28;;;;;;;;;;;32.00;32.00;;;;;;6243671;23;20206;-87
2022/07/07 13:04:54;;;;;;;;;;;31.90;32.20;;;;;;6243022;22;19961;-87
2022/07/07 13:07:22;;;;;;;;;;;32.00;32.40;;;;;;6216468;23;20329;-87
2022/07/07 13:09:47;;;;;;;;;;;32.20;32.50;;;;;;6216594;23;19911;-86
2022/07/07 13:12:13;;;;;;;;;;;32.30;32.50;;;;;;6215783;22;19965;-87
2022/07/07 13:14:39;;;;;;;;;;;32.40;32.60;;;;;;6242713;23;20328;-87
2022/07/07 13:17:05;;;;;;;;;;;32.50;32.30;;;;;;6216350;23;19919;-87
2022/07/07 13:19:31;;;;;;;;;;;32.30;32.20;;;;;;6243128;23;19938;-87
2022/07/07 13:22:03;;;;;;;;;;;32.10;32.30;;;;;;6242442;23;19919;-87
2022/07/07 13:24:29;;;;;;;;;;;31.80;32.70;;;;;;6216295;23;19920;-87
2022/07/07 13:26:56;;;;;;;;;;;31.40;33.10;;;;;;6243907;23;19911;-87
2022/07/07 13:29:21;;;;;;;;;;;31.10;33.70;;;;;;6216841;23;19962;-87
2022/07/07 13:31:48;;;;;;;;;;;30.80;34.30;;;;;;6244023;23;19907;-86
2022/07/07 13:34:16;;;;;;;;;;;30.30;35.10;;;;;;6215815;23;19919;-87
2022/07/07 13:36:42;;;;;;;;;;;29.80;36.80;;;;;;6244068;23;19918;-86
2022/07/07 13:39:07;;;;;;;;;;;29.30;38.70;;;;;;6244130;22;20316;-87
2022/07/07 13:41:33;;;;;;;;;;;29.00;39.00;;;;;;6244603;23;19914;-87
2022/07/07 13:44:02;;;;;;;;;;;28.70;39.00;;;;;;6217371;23;19918;-87
2022/07/07 13:46:27;;;;;;;;;;;28.60;39.50;;;;;;6217660;23;19918;-87
2022/07/07 13:49:17;;;;;;;;;;;28.70;39.40;;;;;;6217254;23;19943;-87
2022/07/07 13:51:43;;;;;;;;;;;28.60;39.50;;;;;;6217803;23;19920;-86
2022/07/07 13:54:08;;;;;;;;;;;28.50;39.50;;;;;;6217551;22;20445;-87
2022/07/07 13:56:34;;;;;;;;;;;28.30;39.50;;;;;;6244709;22;19916;-87
2022/07/07 13:58:59;;;;;;;;;;;28.00;39.80;;;;;;6244885;23;19953;-88
2022/07/07 14:01:27;;;;;;;;;;;27.80;40.30;;;;;;6244216;22;20790;-87
2022/07/07 14:03:53;;;;;;;;;;;27.70;40.40;;;;;;6218070;23;19908;-87
2022/07/07 14:06:19;;;;;;;;;;;27.50;40.60;;;;;;6245024;22;19911;-87
2022/07/07 14:08:44;;;;;;;;;;;27.20;40.60;;;;;;6218507;23;19914;-87
2022/07/07 14:11:11;;;;;;;;;;;27.20;40.90;;;;;;6218961;23;19918;-87
2022/07/07 14:13:37;;;;;;;;;;;27.20;40.30;;;;;;6245390;23;20320;-86
2022/07/07 14:16:03;;;;;;;;;;;27.10;40.00;;;;;;6217810;23;19930;-88
2022/07/07 14:18:28;;;;;;;;;;;27.10;40.20;;;;;;6245632;23;19911;-87